Time;durP1;ratioP1;P1;durP2;ratioP2;P2;SDS_P1;SDS_P2;PMS_P1;PMS_P2;Temp;Humidity;BMP_temperature;BMP_pressure;BME280_temperature;BME280_humidity;BME280_pressure;Samples;Min_cycle;Max_cycle;Signal;HPM_P1;HPM_P2
2023/01/24 00:00:48;;;;;;;25.65;16.55;;;3.40;99.90;;;;;;6302177;22;20027;-83
2023/01/24 00:03:15;;;;;;;28.15;16.98;;;3.10;99.90;;;;;;6303162;22;20041;-82
2023/01/24 00:05:44;;;;;;;29.52;16.90;;;2.30;99.90;;;;;;6303550;22;20023;-83
2023/01/24 00:08:12;;;;;;;26.08;16.75;;;2.30;99.90;;;;;;6278573;22;20064;-83
2023/01/24 00:10:38;;;;;;;26.70;17.55;;;2.60;99.90;;;;;;6330476;22;20457;-82
2023/01/24 00:13:04;;;;;;;26.92;17.25;;;2.30;99.90;;;;;;6303910;22;20292;-82
2023/01/24 00:15:30;;;;;;;26.27;17.17;;;2.40;99.90;;;;;;6303519;22;20030;-82
2023/01/24 00:17:56;;;;;;;27.63;17.92;;;2.80;99.90;;;;;;6302101;22;20090;-82
2023/01/24 00:20:21;;;;;;;30.95;18.88;;;2.30;99.90;;;;;;6303987;22;20404;-83
2023/01/24 00:22:47;;;;;;;26.25;18.60;;;3.00;99.90;;;;;;6276258;22;20343;-83
2023/01/24 00:25:13;;;;;;;25.50;17.90;;;2.80;99.90;;;;;;6332588;22;20011;-82
2023/01/24 00:27:38;;;;;;;28.70;19.05;;;2.30;99.90;;;;;;6303940;22;20435;-83
2023/01/24 00:30:05;;;;;;;31.52;19.85;;;2.90;99.90;;;;;;6301921;22;20517;-83
2023/01/24 00:32:32;;;;;;;29.30;19.25;;;2.30;99.90;;;;;;6303576;22;20435;-83
2023/01/24 00:34:58;;;;;;;26.75;19.63;;;2.30;99.90;;;;;;6330343;22;20473;-83
2023/01/24 00:37:24;;;;;;;27.98;18.65;;;3.20;99.90;;;;;;6303118;22;20019;-83
2023/01/24 00:39:50;;;;;;;31.52;20.30;;;3.00;99.90;;;;;;6302623;22;20023;-82
2023/01/24 00:42:15;;;;;;;29.67;20.25;;;2.30;99.90;;;;;;6304198;22;20316;-82
2023/01/24 00:44:41;;;;;;;30.10;20.48;;;3.40;99.90;;;;;;6276998;22;20014;-83
2023/01/24 00:47:07;;;;;;;31.70;19.83;;;2.60;99.90;;;;;;6302559;22;20041;-82
2023/01/24 00:49:32;;;;;;;29.95;20.27;;;3.40;99.90;;;;;;6304139;22;20335;-83
2023/01/24 00:51:58;;;;;;;28.83;20.75;;;3.00;99.90;;;;;;6276210;22;20064;-82
2023/01/24 00:54:24;;;;;;;30.63;21.02;;;2.40;99.90;;;;;;6303996;22;20018;-82
2023/01/24 00:56:49;;;;;;;32.65;21.17;;;3.30;99.90;;;;;;6303320;22;20090;-83
2023/01/24 00:59:15;;;;;;;30.90;21.35;;;3.10;99.90;;;;;;6276454;22;20102;-83
2023/01/24 01:01:40;;;;;;;34.35;21.42;;;2.90;99.90;;;;;;6303399;22;20034;-83
2023/01/24 01:04:06;;;;;;;33.15;21.98;;;3.30;99.90;;;;;;6331801;22;20045;-83
2023/01/24 01:06:32;;;;;;;33.78;22.13;;;2.90;99.90;;;;;;6305190;22;20041;-82
2023/01/24 01:08:58;;;;;;;33.22;21.88;;;2.30;99.90;;;;;;6305082;22;20179;-82
2023/01/24 01:11:23;;;;;;;31.02;22.13;;;2.50;99.90;;;;;;6305218;22;20365;-82
2023/01/24 01:13:49;;;;;;;38.30;23.42;;;2.30;99.90;;;;;;6304058;22;20027;-82
2023/01/24 01:16:19;;;;;;;31.85;22.38;;;2.30;99.90;;;;;;6304159;22;20015;-82
2023/01/24 01:18:46;;;;;;;38.65;22.77;;;2.60;99.90;;;;;;6332893;22;20092;-82
2023/01/24 01:21:14;;;;;;;33.40;22.30;;;2.30;99.90;;;;;;6304270;22;20014;-82
2023/01/24 01:23:40;;;;;;;33.35;23.98;;;2.20;99.90;;;;;;6305530;22;20014;-83
2023/01/24 01:26:10;;;;;;;34.95;23.08;;;2.30;99.90;;;;;;6303881;22;20427;-83
2023/01/24 01:28:35;;;;;;;33.80;22.42;;;3.30;99.90;;;;;;6306024;22;20029;-82
2023/01/24 01:31:02;;;;;;;36.20;23.73;;;3.10;99.90;;;;;;6303825;22;20019;-80
2023/01/24 01:33:28;;;;;;;33.70;23.58;;;2.30;99.90;;;;;;6332136;22;20018;-80
2023/01/24 01:35:54;;;;;;;39.63;24.15;;;3.00;99.90;;;;;;6304571;22;20019;-80
2023/01/24 01:38:20;;;;;;;41.08;25.60;;;3.50;99.90;;;;;;6304938;22;20023;-80
2023/01/24 01:40:45;;;;;;;35.90;23.35;;;3.30;99.90;;;;;;6303428;22;20029;-80
2023/01/24 01:43:15;;;;;;;38.00;24.15;;;2.90;99.90;;;;;;6280073;22;20031;-80
2023/01/24 01:45:46;;;;;;;41.50;24.02;;;2.30;99.90;;;;;;6304456;22;20072;-80
2023/01/24 01:48:19;;;;;;;37.22;24.42;;;2.30;99.90;;;;;;6278637;22;20060;-80
2023/01/24 01:51:02;;;;;;;37.92;24.13;;;2.30;99.90;;;;;;6304577;22;20292;-80
2023/01/24 01:53:35;;;;;;;34.35;25.05;;;2.30;99.90;;;;;;6305454;22;20082;-80
2023/01/24 01:56:07;;;;;;;35.88;23.88;;;2.30;99.90;;;;;;6331116;22;20241;-80
2023/01/24 01:58:34;;;;;;;41.53;26.30;;;2.30;99.90;;;;;;6305003;22;20459;-80
2023/01/24 02:00:59;;;;;;;40.35;26.42;;;2.30;99.90;;;;;;6331106;22;20029;-80
2023/01/24 02:03:38;;;;;;;38.97;26.25;;;2.30;99.90;;;;;;6304299;22;20394;-80
2023/01/24 02:06:07;;;;;;;38.72;24.90;;;3.20;99.90;;;;;;6304322;22;20459;-80
2023/01/24 02:08:33;;;;;;;36.90;24.25;;;2.30;99.90;;;;;;6303665;22;20029;-80
2023/01/24 02:13:45;;;;;;;35.88;24.30;;;2.70;99.90;;;;;;6304287;22;20117;-80
2023/01/24 02:16:12;;;;;;;39.95;24.73;;;3.10;99.90;;;;;;6302267;22;20058;-80
2023/01/24 02:18:41;;;;;;;38.92;24.80;;;2.50;99.90;;;;;;6305128;22;20106;-79
2023/01/24 02:21:10;;;;;;;38.00;25.33;;;2.40;99.90;;;;;;6304235;22;20018;-80
2023/01/24 02:23:54;;;;;;;36.50;24.20;;;2.30;99.90;;;;;;6304200;22;20015;-80
2023/01/24 02:26:22;;;;;;;40.63;25.77;;;2.30;99.90;;;;;;6304982;22;20427;-80
2023/01/24 02:28:59;;;;;;;39.67;25.27;;;2.20;99.90;;;;;;6303628;22;20046;-80
2023/01/24 02:31:25;;;;;;;36.40;24.80;;;2.30;99.90;;;;;;6302594;22;20064;-80
2023/01/24 02:33:51;;;;;;;44.20;27.80;;;2.30;99.90;;;;;;6304094;22;20018;-80
2023/01/24 02:36:21;;;;;;;39.30;26.38;;;2.80;99.90;;;;;;6305088;22;20316;-80
2023/01/24 02:38:54;;;;;;;40.13;25.10;;;2.30;99.90;;;;;;6303872;22;20022;-81
2023/01/24 02:41:28;;;;;;;41.13;25.80;;;3.30;99.90;;;;;;6332097;22;20046;-80
2023/01/24 02:43:55;;;;;;;;;;;2.40;99.90;;;;;;6331868;22;20314;-80
2023/01/24 02:46:20;;;;;;;36.65;24.83;;;3.30;99.90;;;;;;6277532;22;19921;-80
2023/01/24 02:48:49;;;;;;;40.63;25.63;;;3.10;99.90;;;;;;6304053;22;20018;-80
2023/01/24 02:53:58;;;;;;;38.20;25.27;;;3.00;99.90;;;;;;6331507;22;20383;-80
2023/01/24 02:59:11;;;;;;;37.85;25.08;;;2.70;99.90;;;;;;6303022;22;20022;-80
2023/01/24 03:01:36;;;;;;;40.78;26.13;;;3.20;99.90;;;;;;6331916;22;20014;-80
2023/01/24 03:04:02;;;;;;;37.17;24.60;;;2.30;99.90;;;;;;6303631;22;20022;-80
2023/01/24 03:06:28;;;;;;;42.25;25.30;;;3.30;99.90;;;;;;6304171;22;20080;-80
2023/01/24 03:08:53;;;;;;;46.13;25.73;;;2.20;99.90;;;;;;6331507;22;20324;-80
2023/01/24 03:11:19;;;;;;;40.53;26.30;;;2.60;99.90;;;;;;6304450;22;20080;-80
2023/01/24 03:35:53;;;;;;;38.28;24.20;;;2.30;99.90;;;;;;6331533;22;20094;-80
2023/01/24 03:41:04;;;;;;;40.88;26.35;;;2.30;99.90;;;;;;6302208;22;20027;-80
2023/01/24 03:43:30;;;;;;;37.78;25.77;;;2.60;99.90;;;;;;6332038;22;20072;-80
2023/01/24 03:45:55;;;;;;;39.60;26.10;;;2.30;99.90;;;;;;6302487;22;20007;-80
2023/01/24 03:48:26;;;;;;;44.35;26.08;;;2.30;99.90;;;;;;6303586;22;20011;-80
2023/01/24 03:53:37;;;;;;;38.42;25.65;;;2.80;99.90;;;;;;6304236;22;20019;-80
2023/01/24 03:56:03;;;;;;;42.50;26.52;;;2.90;99.90;;;;;;6302459;22;20021;-80
2023/01/24 03:58:30;;;;;;;36.33;24.52;;;2.30;99.90;;;;;;6332203;22;20023;-80
2023/01/24 04:00:57;;;;;;;31.92;22.10;;;2.90;99.90;;;;;;6301579;22;20072;-80
2023/01/24 04:03:23;;;;;;;24.55;16.88;;;3.30;99.90;;;;;;6298385;22;20027;-80
2023/01/24 04:05:49;;;;;;;29.17;21.23;;;2.70;99.90;;;;;;6298096;22;20031;-80
2023/01/24 04:08:16;;;;;;;29.33;21.52;;;3.30;99.90;;;;;;6297810;22;20007;-80
2023/01/24 04:10:42;;;;;;;31.27;20.80;;;2.50;99.90;;;;;;6301162;22;20073;-80
2023/01/24 04:13:09;;;;;;;27.23;19.42;;;3.30;99.90;;;;;;6300764;22;20380;-80
2023/01/24 04:15:35;;;;;;;29.10;20.35;;;2.30;99.90;;;;;;6297303;22;20280;-80
2023/01/24 04:18:03;;;;;;;30.77;21.25;;;3.50;99.90;;;;;;6297782;22;20015;-80
2023/01/24 04:20:32;;;;;;;32.00;20.85;;;2.30;99.90;;;;;;6298483;22;20030;-80
2023/01/24 04:23:01;;;;;;;34.03;22.25;;;3.30;99.90;;;;;;6297196;22;20016;-80
2023/01/24 04:25:27;;;;;;;32.50;21.13;;;2.50;99.90;;;;;;6298449;22;20038;-80
2023/01/24 04:27:52;;;;;;;31.05;20.92;;;2.30;99.90;;;;;;6300120;22;20015;-80
2023/01/24 04:30:18;;;;;;;28.77;20.27;;;2.30;99.90;;;;;;6296974;22;20011;-80
2023/01/24 04:32:44;;;;;;;27.10;20.23;;;2.30;99.90;;;;;;6297424;22;20097;-80
2023/01/24 04:35:16;;;;;;;29.65;19.70;;;2.30;99.90;;;;;;6298867;22;20023;-80
2023/01/24 04:37:42;;;;;;;28.85;20.83;;;3.40;99.90;;;;;;6298734;22;20469;-80
2023/01/24 04:40:08;;;;;;;32.03;20.75;;;2.40;99.90;;;;;;6300408;22;20274;-80
2023/01/24 04:42:34;;;;;;;29.05;21.10;;;2.30;99.90;;;;;;6300482;22;20023;-80
2023/01/24 04:45:00;;;;;;;27.60;19.73;;;2.40;99.90;;;;;;6298704;22;20086;-80
2023/01/24 04:47:25;;;;;;;27.13;20.10;;;2.70;99.90;;;;;;6274108;22;20015;-80
2023/01/24 04:49:51;;;;;;;27.00;19.20;;;3.20;99.90;;;;;;6300175;22;20435;-80
2023/01/24 04:52:17;;;;;;;28.25;19.20;;;3.00;99.90;;;;;;6302022;22;20462;-80
2023/01/24 04:54:43;;;;;;;25.10;18.38;;;2.80;99.90;;;;;;6300029;22;20451;-80
2023/01/24 04:57:11;;;;;;;22.75;17.55;;;2.60;99.90;;;;;;6299932;22;20085;-80
2023/01/24 04:59:37;;;;;;;25.00;18.38;;;3.50;99.90;;;;;;6299554;22;20046;-80
2023/01/24 05:02:02;;;;;;;24.52;18.38;;;3.30;99.90;;;;;;6301243;22;20065;-80
2023/01/24 05:04:28;;;;;;;24.35;17.85;;;2.30;99.90;;;;;;6299509;22;20088;-80
2023/01/24 05:06:54;;;;;;;27.33;17.88;;;3.30;99.90;;;;;;6299282;22;20023;-80
2023/01/24 05:09:20;;;;;;;25.95;18.65;;;3.00;99.90;;;;;;6300573;22;20019;-80
2023/01/24 05:11:45;;;;;;;23.90;17.92;;;2.50;99.90;;;;;;6298442;22;20026;-80
2023/01/24 05:14:11;;;;;;;25.42;18.55;;;2.30;99.90;;;;;;6300727;22;20027;-79
2023/01/24 05:16:37;;;;;;;25.73;18.73;;;2.30;99.90;;;;;;6299500;22;20153;-80
2023/01/24 05:19:03;;;;;;;24.58;18.65;;;2.40;99.90;;;;;;6300590;22;20023;-80
2023/01/24 05:21:29;;;;;;;25.02;18.25;;;2.70;99.90;;;;;;6300155;22;20076;-80
2023/01/24 05:23:55;;;;;;;27.20;18.63;;;2.50;99.90;;;;;;6298314;22;20023;-79
2023/01/24 05:26:23;;;;;;;23.27;18.13;;;2.30;99.90;;;;;;6301423;22;20481;-80
2023/01/24 05:28:50;;;;;;;24.10;17.52;;;3.40;99.90;;;;;;6300085;22;20011;-80
2023/01/24 05:31:16;;;;;;;24.17;17.17;;;2.30;99.90;;;;;;6299710;22;20022;-80
2023/01/24 05:33:41;;;;;;;22.65;16.88;;;2.30;99.90;;;;;;6299209;22;20288;-80
2023/01/24 05:36:10;;;;;;;23.70;17.83;;;2.40;99.90;;;;;;6299204;22;20019;-80
2023/01/24 05:38:36;;;;;;;25.85;18.63;;;3.20;99.90;;;;;;6302804;22;20106;-80
2023/01/24 05:41:06;;;;;;;23.92;17.90;;;2.90;99.90;;;;;;6298162;22;20378;-80
2023/01/24 05:43:32;;;;;;;26.95;19.35;;;2.30;99.90;;;;;;6300528;22;20019;-80
2023/01/24 05:46:01;;;;;;;23.15;18.13;;;2.30;99.90;;;;;;6300533;22;20072;-81
2023/01/24 05:48:27;;;;;;;24.38;17.60;;;2.30;99.90;;;;;;6299663;22;20046;-81
2023/01/24 05:51:02;;;;;;;22.42;16.83;;;3.30;99.90;;;;;;6301062;22;20023;-82
2023/01/24 05:53:29;;;;;;;24.70;18.80;;;3.10;99.90;;;;;;6299616;22;20358;-80
2023/01/24 05:55:57;;;;;;;26.73;19.27;;;2.30;99.90;;;;;;6298951;22;20367;-81
2023/01/24 05:58:25;;;;;;;28.63;19.63;;;3.20;99.90;;;;;;6300390;22;20094;-81
2023/01/24 06:00:51;;;;;;;27.05;18.95;;;2.30;99.90;;;;;;6297558;22;20461;-82
2023/01/24 06:03:17;;;;;;;28.33;19.73;;;2.30;99.90;;;;;;6303328;22;20102;-81
2023/01/24 06:05:48;;;;;;;31.95;20.30;;;2.70;99.90;;;;;;6303298;22;20031;-82
2023/01/24 06:08:14;;;;;;;27.05;19.85;;;2.30;99.90;;;;;;6278140;22;20061;-81
2023/01/24 06:10:40;;;;;;;26.27;18.90;;;3.00;99.90;;;;;;6305358;22;20022;-81
2023/01/24 06:13:06;;;;;;;25.60;19.85;;;3.40;99.90;;;;;;6331796;22;20370;-82
2023/01/24 06:15:32;;;;;;;26.40;19.13;;;3.10;99.90;;;;;;6278127;22;20087;-82
2023/01/24 06:17:57;;;;;;;25.98;19.73;;;3.40;99.90;;;;;;6303433;22;20019;-81
2023/01/24 06:20:23;;;;;;;30.52;21.10;;;2.50;99.90;;;;;;6305261;22;20022;-81
2023/01/24 06:22:54;;;;;;;26.88;19.45;;;2.20;99.90;;;;;;6303331;22;20025;-81
2023/01/24 06:25:23;;;;;;;28.05;20.55;;;2.30;99.90;;;;;;6305748;22;20097;-81
2023/01/24 06:27:50;;;;;;;29.98;21.15;;;2.20;99.90;;;;;;6304019;22;20027;-82
2023/01/24 06:30:17;;;;;;;29.30;20.50;;;2.20;99.90;;;;;;6303654;22;20015;-81
2023/01/24 06:33:06;;;;;;;30.95;20.90;;;2.20;99.90;;;;;;6304364;22;20447;-81
2023/01/24 06:35:52;;;;;;;27.08;19.90;;;2.20;99.90;;;;;;6303713;22;20019;-81
2023/01/24 06:38:22;;;;;;;28.83;20.25;;;2.20;99.90;;;;;;6304665;22;20018;-81
2023/01/24 06:40:53;;;;;;;35.60;20.92;;;2.20;99.90;;;;;;6332454;22;20048;-81
2023/01/24 06:43:19;;;;;;;33.05;22.80;;;2.20;99.90;;;;;;6304311;22;20026;-82
2023/01/24 06:45:45;;;;;;;30.45;22.25;;;2.20;99.90;;;;;;6304032;22;20023;-81
2023/01/24 06:48:11;;;;;;;34.60;21.35;;;2.40;99.90;;;;;;6304059;22;20427;-81
2023/01/24 06:50:37;;;;;;;32.35;21.95;;;2.80;99.90;;;;;;6304097;22;20018;-82
2023/01/24 06:53:03;;;;;;;29.98;21.20;;;2.90;99.90;;;;;;6303739;22;20398;-81
2023/01/24 06:55:29;;;;;;;33.65;21.98;;;2.10;99.90;;;;;;6279090;22;20102;-81
2023/01/24 06:57:56;;;;;;;30.80;21.38;;;3.30;99.90;;;;;;6303183;22;20019;-81
2023/01/24 07:00:22;;;;;;;31.33;21.70;;;3.00;99.90;;;;;;6303490;22;20288;-81
2023/01/24 07:02:48;;;;;;;35.15;21.80;;;2.20;99.90;;;;;;6331744;22;20015;-81
2023/01/24 07:05:13;;;;;;;30.13;21.10;;;2.90;99.90;;;;;;6292753;22;20016;-81
2023/01/24 07:07:39;;;;;;;29.98;19.73;;;2.20;99.90;;;;;;6268634;22;20484;-81
2023/01/24 07:10:05;;;;;;;25.52;19.38;;;2.20;99.90;;;;;;6267932;22;20531;-82
2023/01/24 07:12:31;;;;;;;28.75;18.58;;;2.20;99.90;;;;;;6292984;22;20448;-82
2023/01/24 07:14:57;;;;;;;24.48;17.63;;;2.80;99.90;;;;;;6293088;22;20015;-82
2023/01/24 07:17:23;;;;;;;23.63;15.88;;;3.10;99.90;;;;;;6293177;22;20019;-82
2023/01/24 07:19:48;;;;;;;23.05;16.35;;;2.10;99.90;;;;;;6268860;22;20012;-82
2023/01/24 07:22:14;;;;;;;22.27;15.98;;;2.20;99.90;;;;;;6268597;22;20381;-81
2023/01/24 07:24:42;;;;;;;21.23;15.63;;;2.20;99.90;;;;;;6293893;22;20055;-81
2023/01/24 07:27:08;;;;;;;23.60;16.05;;;2.20;99.90;;;;;;6293760;22;20344;-81
2023/01/24 07:29:34;;;;;;;25.00;18.60;;;2.10;99.90;;;;;;6267387;22;20023;-81
2023/01/24 07:31:59;;;;;;;29.52;17.67;;;2.10;99.90;;;;;;6292406;22;20023;-83
2023/01/24 07:34:25;;;;;;;24.83;16.02;;;3.10;99.90;;;;;;6268742;22;20031;-83
2023/01/24 07:36:51;;;;;;;21.73;15.98;;;2.10;99.90;;;;;;6292432;22;20019;-81
2023/01/24 07:39:16;;;;;;;22.30;16.10;;;2.30;99.90;;;;;;6267373;22;20141;-82
2023/01/24 07:41:43;;;;;;;23.88;15.65;;;3.20;99.90;;;;;;6267743;22;20016;-81
2023/01/24 07:44:09;;;;;;;19.63;15.43;;;3.10;99.90;;;;;;6268624;22;20015;-81
2023/01/24 07:46:35;;;;;;;20.88;15.35;;;2.40;99.90;;;;;;6266644;22;20050;-81
2023/01/24 07:49:02;;;;;;;21.25;14.00;;;3.10;99.90;;;;;;6267596;22;20018;-82
2023/01/24 07:51:28;;;;;;;25.48;14.45;;;2.70;99.90;;;;;;6270543;22;20016;-82
2023/01/24 07:53:54;;;;;;;21.10;15.10;;;2.20;99.90;;;;;;6265959;22;20344;-82
2023/01/24 07:56:20;;;;;;;22.35;14.38;;;2.70;99.90;;;;;;6294074;22;20098;-82
2023/01/24 07:58:45;;;;;;;17.98;13.10;;;2.50;99.90;;;;;;6293259;22;20011;-82
2023/01/24 08:01:17;;;;;;;20.92;13.90;;;2.50;99.90;;;;;;6266201;22;20019;-82
2023/01/24 08:03:42;;;;;;;20.00;14.05;;;3.10;99.90;;;;;;6293313;22;20099;-82
2023/01/24 08:06:08;;;;;;;22.55;13.95;;;2.60;99.90;;;;;;6293294;22;20064;-82
2023/01/24 08:08:34;;;;;;;19.60;14.18;;;3.40;99.90;;;;;;6267290;22;20051;-82
2023/01/24 08:10:59;;;;;;;19.70;14.38;;;2.60;99.90;;;;;;6266768;22;20111;-83
2023/01/24 08:13:25;;;;;;;20.73;14.20;;;2.20;99.90;;;;;;6269800;22;20333;-82
2023/01/24 08:15:51;;;;;;;18.90;12.85;;;2.70;99.90;;;;;;6268157;22;20368;-82
2023/01/24 08:18:17;;;;;;;19.40;13.63;;;2.70;99.90;;;;;;6269425;22;20016;-83
2023/01/24 08:20:43;;;;;;;23.88;14.07;;;2.90;99.90;;;;;;6270286;22;20161;-82
2023/01/24 08:23:09;;;;;;;19.40;13.77;;;3.00;99.90;;;;;;6268899;22;20482;-82
2023/01/24 08:25:34;;;;;;;19.70;13.77;;;2.80;99.90;;;;;;6269812;22;20019;-83
2023/01/24 08:28:00;;;;;;;18.58;13.90;;;3.40;99.90;;;;;;6243778;22;20019;-82
2023/01/24 08:30:26;;;;;;;21.30;14.25;;;2.20;99.90;;;;;;6268740;22;20016;-83
2023/01/24 08:33:01;;;;;;;25.00;13.00;;;2.60;99.90;;;;;;6268366;22;20024;-83
2023/01/24 08:35:27;;;;;;;17.35;12.35;;;2.20;99.90;;;;;;6294989;22;20023;-82
2023/01/24 08:37:52;;;;;;;16.73;12.32;;;2.60;99.90;;;;;;6268989;22;20015;-82
2023/01/24 08:40:19;;;;;;;16.52;12.20;;;2.30;99.90;;;;;;6269260;22;20363;-82
2023/01/24 08:42:44;;;;;;;18.35;12.18;;;2.30;99.90;;;;;;6268298;22;20020;-82
2023/01/24 08:45:10;;;;;;;18.45;12.88;;;2.30;99.90;;;;;;6243586;22;20042;-82
2023/01/24 08:47:35;;;;;;;17.20;12.50;;;2.30;99.90;;;;;;6269378;22;20019;-82
2023/01/24 08:50:02;;;;;;;17.55;12.55;;;2.30;99.90;;;;;;6293957;22;20123;-82
2023/01/24 08:52:27;;;;;;;18.48;12.75;;;2.60;99.90;;;;;;6295149;22;20383;-81
2023/01/24 08:54:53;;;;;;;19.23;12.27;;;3.30;99.90;;;;;;6268961;22;20015;-81
2023/01/24 08:57:19;;;;;;;19.75;12.82;;;3.60;99.90;;;;;;6294563;22;20157;-80
2023/01/24 08:59:44;;;;;;;19.98;13.20;;;3.50;99.90;;;;;;6294662;22;20030;-83
2023/01/24 09:02:14;;;;;;;20.27;13.25;;;3.30;99.90;;;;;;6243912;22;20019;-81
2023/01/24 09:04:42;;;;;;;18.35;12.52;;;2.40;99.90;;;;;;6294036;22;20023;-81
2023/01/24 09:07:08;;;;;;;16.63;11.98;;;2.90;99.90;;;;;;6271387;22;20055;-81
2023/01/24 09:09:34;;;;;;;16.60;11.35;;;2.40;99.90;;;;;;6294670;22;20777;-82
2023/01/24 09:11:59;;;;;;;17.20;11.55;;;2.40;99.90;;;;;;6267985;22;20058;-80
2023/01/24 09:14:25;;;;;;;15.10;11.18;;;2.80;99.90;;;;;;6270797;22;20022;-81
2023/01/24 09:16:51;;;;;;;15.25;10.82;;;3.30;99.90;;;;;;6268439;22;20015;-81
2023/01/24 09:19:16;;;;;;;16.15;11.73;;;2.80;99.90;;;;;;6268727;22;20050;-81
2023/01/24 09:21:43;;;;;;;17.10;12.27;;;2.90;99.90;;;;;;6268719;22;20063;-81
2023/01/24 09:24:09;;;;;;;15.82;11.50;;;3.60;99.90;;;;;;6271569;22;20012;-81
2023/01/24 09:26:35;;;;;;;16.67;11.75;;;2.40;99.90;;;;;;6268057;22;20027;-81
2023/01/24 09:29:01;;;;;;;17.77;11.77;;;3.50;99.90;;;;;;6268907;22;20032;-81
2023/01/24 09:31:26;;;;;;;15.35;11.30;;;3.70;99.90;;;;;;6293667;22;20046;-81
2023/01/24 09:33:52;;;;;;;17.15;11.45;;;2.50;99.90;;;;;;6268288;22;20107;-81
2023/01/24 09:36:17;;;;;;;15.88;10.95;;;2.90;99.90;;;;;;6269255;22;20043;-81
2023/01/24 09:38:43;;;;;;;20.42;11.45;;;3.80;99.90;;;;;;6268079;22;20061;-81
2023/01/24 09:41:10;;;;;;;16.67;11.30;;;3.30;99.90;;;;;;6269056;22;20016;-81
2023/01/24 09:43:42;;;;;;;17.67;11.70;;;2.50;99.90;;;;;;6243971;22;20058;-81
2023/01/24 09:46:24;;;;;;;17.60;11.80;;;2.60;99.90;;;;;;6267013;22;20015;-81
2023/01/24 09:48:57;;;;;;;17.40;11.45;;;2.60;99.90;;;;;;6243283;22;20019;-81
2023/01/24 09:51:24;;;;;;;;;;;3.10;99.90;;;;;;6295281;22;20103;-81
2023/01/24 09:53:55;;;;;;;17.40;11.50;;;3.50;99.90;;;;;;6242374;22;19926;-81
2023/01/24 09:56:26;;;;;;;15.75;11.27;;;2.60;99.90;;;;;;6294501;22;20090;-81
2023/01/24 09:59:18;;;;;;;20.02;10.57;;;2.90;99.90;;;;;;6270583;22;20027;-81
2023/01/24 10:01:45;;;;;;;15.40;10.85;;;3.00;99.90;;;;;;6266480;22;20408;-82
2023/01/24 10:04:19;;;;;;;15.57;10.80;;;3.40;99.90;;;;;;6294951;22;20086;-81
2023/01/24 10:06:59;;;;;;;17.48;11.48;;;2.70;99.90;;;;;;6268925;22;20016;-81
2023/01/24 10:09:46;;;;;;;15.07;10.73;;;2.70;99.90;;;;;;6268620;22;20436;-81
2023/01/24 10:12:30;;;;;;;14.73;11.10;;;3.30;99.90;;;;;;6294769;22;20020;-81
2023/01/24 10:15:21;;;;;;;14.50;10.57;;;2.70;99.90;;;;;;6267286;22;20095;-81
2023/01/24 10:17:56;;;;;;;15.90;11.57;;;2.90;99.90;;;;;;6268029;22;20035;-81
2023/01/24 10:20:46;;;;;;;16.48;12.00;;;3.10;99.90;;;;;;6269418;22;20745;-82
2023/01/24 10:23:16;;;;;;;14.77;10.95;;;2.80;99.90;;;;;;6271293;22;20125;-81
2023/01/24 10:25:58;;;;;;;15.15;11.13;;;3.30;99.90;;;;;;6294377;22;20077;-81
2023/01/24 10:28:35;;;;;;;15.70;11.23;;;2.80;99.90;;;;;;6267957;22;20073;-81
2023/01/24 10:31:14;;;;;;;15.77;11.18;;;2.90;99.90;;;;;;6292987;22;20788;-81
2023/01/24 10:33:47;;;;;;;16.23;10.93;;;2.80;99.90;;;;;;6294561;22;20027;-81
2023/01/24 10:36:32;;;;;;;14.70;9.88;;;2.80;99.90;;;;;;6293584;22;20027;-81
2023/01/24 10:38:58;;;;;;;35.75;12.60;;;2.80;99.90;;;;;;6268636;22;20023;-81
2023/01/24 10:41:26;;;;;;;14.35;10.82;;;3.30;99.90;;;;;;6242577;22;20026;-81
2023/01/24 10:43:58;;;;;;;15.77;10.77;;;3.20;99.90;;;;;;6292519;22;20513;-82
2023/01/24 10:46:54;;;;;;;18.25;10.93;;;3.00;99.90;;;;;;6267195;22;20016;-80
2023/01/24 10:49:25;;;;;;;16.40;11.32;;;2.90;99.90;;;;;;6267865;22;20023;-82
2023/01/24 10:52:09;;;;;;;15.65;10.77;;;2.90;99.90;;;;;;6293669;22;20007;-81
2023/01/24 10:54:52;;;;;;;20.35;11.57;;;2.90;99.90;;;;;;6294539;22;20117;-81
2023/01/24 10:57:37;;;;;;;16.85;11.77;;;2.90;99.90;;;;;;6267933;22;20016;-81
2023/01/24 11:00:05;;;;;;;19.60;12.20;;;3.00;99.90;;;;;;6293181;22;20336;-81
2023/01/24 11:02:34;;;;;;;14.30;10.13;;;3.00;99.90;;;;;;6293348;22;20035;-81
2023/01/24 11:05:03;;;;;;;14.30;10.52;;;3.10;99.90;;;;;;6293002;22;20030;-81
2023/01/24 11:07:33;;;;;;;18.60;11.43;;;3.30;99.90;;;;;;6299243;22;20387;-81
2023/01/24 11:10:01;;;;;;;15.45;11.35;;;3.00;99.90;;;;;;6299977;22;20011;-81
2023/01/24 11:12:28;;;;;;;15.75;11.38;;;3.30;99.90;;;;;;6299288;22;20407;-81
2023/01/24 11:14:54;;;;;;;16.75;11.35;;;4.20;99.90;;;;;;6298500;22;20063;-81
2023/01/24 11:17:38;;;;;;;15.43;10.82;;;3.50;99.90;;;;;;6298123;22;20020;-81
2023/01/24 11:20:25;;;;;;;14.63;10.50;;;4.20;99.90;;;;;;6298169;22;20091;-82
2023/01/24 11:22:51;;;;;;;18.80;11.50;;;3.00;99.90;;;;;;6298271;22;20273;-82
2023/01/24 11:25:17;;;;;;;17.60;11.75;;;3.60;99.90;;;;;;6298549;22;20148;-82
2023/01/24 11:27:46;;;;;;;16.65;11.60;;;4.00;99.90;;;;;;6298593;22;20083;-81
2023/01/24 11:30:12;;;;;;;15.57;11.15;;;3.00;99.90;;;;;;6298948;22;20072;-82
2023/01/24 11:33:03;;;;;;;16.35;11.98;;;3.60;99.90;;;;;;6297858;22;20022;-81
2023/01/24 11:35:34;;;;;;;18.63;12.05;;;3.00;99.90;;;;;;6298762;22;20458;-82
2023/01/24 11:38:16;;;;;;;17.98;11.95;;;4.10;99.90;;;;;;6298100;22;20723;-81
2023/01/24 11:40:54;;;;;;;18.02;11.85;;;3.00;99.90;;;;;;6298821;22;20016;-82
2023/01/24 11:43:20;;;;;;;17.88;12.80;;;3.10;99.90;;;;;;6299503;22;20023;-82
2023/01/24 11:46:04;;;;;;;18.25;12.73;;;3.00;99.90;;;;;;6270674;22;20087;-80
2023/01/24 11:48:39;;;;;;;15.32;11.38;;;3.30;99.90;;;;;;6298389;22;20027;-82
2023/01/24 11:51:18;;;;;;;17.02;11.40;;;3.80;99.90;;;;;;6297953;22;20438;-81
2023/01/24 11:53:57;;;;;;;15.85;11.93;;;3.70;99.90;;;;;;6271604;22;20019;-81
2023/01/24 11:56:49;;;;;;;16.42;11.75;;;3.90;99.90;;;;;;6273335;22;20019;-82
2023/01/24 11:59:39;;;;;;;16.52;12.27;;;3.00;99.90;;;;;;6297578;22;20022;-81
2023/01/24 12:02:28;;;;;;;17.52;11.68;;;3.10;99.90;;;;;;6272182;22;20340;-81
2023/01/24 12:05:16;;;;;;;18.88;12.32;;;3.10;99.90;;;;;;6325015;22;20015;-81
2023/01/24 12:08:09;;;;;;;17.40;12.77;;;3.10;99.90;;;;;;6303157;22;20480;-81
2023/01/24 12:10:39;;;;;;;16.95;12.32;;;3.10;99.90;;;;;;6331530;22;20471;-81
2023/01/24 12:13:15;;;;;;;18.40;13.13;;;3.10;99.90;;;;;;6303414;22;20022;-81
2023/01/24 12:15:51;;;;;;;18.25;12.80;;;3.70;99.90;;;;;;6303557;22;20014;-81
2023/01/24 12:18:31;;;;;;;19.30;13.15;;;3.20;99.90;;;;;;6303482;22;20046;-81
2023/01/24 12:21:08;;;;;;;19.20;12.80;;;3.20;99.90;;;;;;6301635;22;20019;-81
2023/01/24 12:23:45;;;;;;;20.48;14.10;;;3.80;99.90;;;;;;6303867;22;20050;-81
2023/01/24 12:26:18;;;;;;;20.27;12.93;;;3.10;99.90;;;;;;6304065;22;20089;-81
2023/01/24 12:28:59;;;;;;;17.52;13.32;;;3.50;99.90;;;;;;6302327;22;20007;-81
2023/01/24 12:31:38;;;;;;;19.25;13.02;;;3.30;99.90;;;;;;6303057;22;20018;-81
2023/01/24 12:34:09;;;;;;;17.85;12.65;;;3.10;99.90;;;;;;6303871;22;20356;-81
2023/01/24 12:36:43;;;;;;;25.70;12.43;;;3.20;99.90;;;;;;6302875;22;20482;-81
2023/01/24 12:39:15;;;;;;;20.23;13.70;;;3.40;99.90;;;;;;6303926;22;20303;-81
2023/01/24 12:41:41;;;;;;;17.73;13.27;;;3.00;99.90;;;;;;6329199;22;20018;-81
2023/01/24 12:44:29;;;;;;;20.35;13.45;;;3.00;99.90;;;;;;6303403;22;20026;-81
2023/01/24 12:47:36;;;;;;;17.92;12.68;;;3.00;99.90;;;;;;6302541;22;20068;-81
2023/01/24 12:50:18;;;;;;;19.23;13.27;;;3.50;99.90;;;;;;6329876;22;20500;-80
2023/01/24 12:52:58;;;;;;;21.85;12.90;;;3.00;99.90;;;;;;6303299;22;20019;-81
2023/01/24 12:55:32;;;;;;;18.13;13.27;;;3.30;99.90;;;;;;6303072;22;20077;-80
2023/01/24 12:58:09;;;;;;;21.83;15.10;;;4.10;99.90;;;;;;6303353;22;20050;-81
2023/01/24 13:01:03;;;;;;;17.92;12.70;;;3.00;99.90;;;;;;6333046;22;20320;-80
2023/01/24 13:03:35;;;;;;;19.48;13.05;;;3.10;99.90;;;;;;6305292;22;20015;-81
2023/01/24 13:06:14;;;;;;;22.08;13.68;;;3.20;99.90;;;;;;6332975;22;20023;-81
2023/01/24 13:09:02;;;;;;;19.45;14.18;;;3.10;99.90;;;;;;6280140;22;20075;-81
2023/01/24 13:11:29;;;;;;;19.90;14.15;;;3.10;99.90;;;;;;6305034;22;20462;-81
2023/01/24 13:14:12;;;;;;;20.63;13.85;;;3.00;99.90;;;;;;6305456;22;20025;-81
2023/01/24 13:16:44;;;;;;;22.25;13.32;;;3.00;99.90;;;;;;6278225;22;20014;-81
2023/01/24 13:19:18;;;;;;;18.98;13.88;;;3.10;99.90;;;;;;6334176;22;20023;-81
2023/01/24 13:22:15;;;;;;;17.73;13.40;;;3.10;99.90;;;;;;6304533;22;20022;-81
2023/01/24 13:25:00;;;;;;;20.33;14.27;;;3.10;99.90;;;;;;6305087;22;20072;-81
2023/01/24 13:27:36;;;;;;;19.05;12.95;;;3.00;99.90;;;;;;6334027;22;20026;-81